Time;durP1;ratioP1;P1;durP2;ratioP2;P2;SDS_P1;SDS_P2;PMS_P1;PMS_P2;Temp;Humidity;BMP_temperature;BMP_pressure;BME280_temperature;BME280_humidity;BME280_pressure;Samples;Min_cycle;Max_cycle;Signal;HPM_P1;HPM_P2
2021/11/11 00:00:22;;;;;;;2.30;1.65;;;4.60;99.90;;;;;;5039975;28;20197;-75
2021/11/11 00:02:53;;;;;;;1.55;1.45;;;4.60;99.90;;;;;;5057942;28;20204;-74
2021/11/11 00:05:23;;;;;;;1.15;1.05;;;4.60;99.90;;;;;;5058470;28;20209;-75
2021/11/11 00:07:52;;;;;;;1.25;0.95;;;4.60;99.90;;;;;;5058757;28;20177;-74
2021/11/11 00:10:24;;;;;;;1.10;0.60;;;4.50;99.90;;;;;;5058248;28;20267;-75
2021/11/11 00:12:53;;;;;;;8.82;1.45;;;4.60;99.90;;;;;;5058808;28;20189;-74
2021/11/11 00:15:22;;;;;;;2.42;2.30;;;4.60;99.90;;;;;;5058280;28;20216;-74
2021/11/11 00:17:50;;;;;;;1.25;1.15;;;4.60;99.90;;;;;;5058545;28;20223;-75
2021/11/11 00:20:22;;;;;;;2.45;0.95;;;4.50;99.90;;;;;;5058809;28;20200;-74
2021/11/11 00:22:54;;;;;;;0.90;0.60;;;4.50;99.90;;;;;;5058423;28;20200;-74
2021/11/11 00:25:24;;;;;;;7.50;1.63;;;4.40;99.90;;;;;;5040044;28;20678;-75
2021/11/11 00:27:52;;;;;;;1.63;1.52;;;4.40;99.90;;;;;;5057391;28;20178;-74
2021/11/11 00:30:22;;;;;;;1.00;0.90;;;4.30;99.90;;;;;;5056990;28;20272;-75
2021/11/11 00:32:52;;;;;;;1.20;1.10;;;4.30;99.90;;;;;;5056196;28;20201;-73
2021/11/11 00:35:22;;;;;;;1.75;1.02;;;4.30;99.90;;;;;;5057098;28;20281;-74
2021/11/11 00:37:53;;;;;;;1.52;1.42;;;4.20;99.90;;;;;;5056216;28;20192;-74
2021/11/11 00:40:21;;;;;;;2.40;1.73;;;4.10;99.90;;;;;;5056998;28;20188;-73
2021/11/11 00:42:49;;;;;;;1.30;1.20;;;4.10;99.90;;;;;;5057109;28;20177;-74
2021/11/11 00:45:18;;;;;;;1.52;1.42;;;4.10;99.90;;;;;;5054591;28;20212;-72
2021/11/11 00:47:48;;;;;;;0.80;0.60;;;4.00;99.90;;;;;;5054716;28;20686;-74
2021/11/11 00:50:19;;;;;;;3.40;2.30;;;4.00;99.90;;;;;;5054352;28;20188;-74
2021/11/11 00:52:48;;;;;;;1.48;1.38;;;3.90;99.90;;;;;;5036859;28;20176;-74
2021/11/11 00:55:18;;;;;;;1.27;1.00;;;4.00;99.90;;;;;;5054510;28;20212;-74
2021/11/11 00:58:08;;;;;;;1.58;1.13;;;4.00;99.90;;;;;;5036930;28;20196;-74
2021/11/11 01:00:38;;;;;;;1.10;1.00;;;3.90;99.90;;;;;;5053072;28;20185;-74
2021/11/11 01:03:07;;;;;;;0.90;0.77;;;3.90;99.90;;;;;;5053646;28;20817;-74
2021/11/11 01:05:36;;;;;;;4.85;1.23;;;3.90;99.90;;;;;;5052587;28;20208;-73
2021/11/11 01:08:06;;;;;;;2.03;1.35;;;3.90;99.90;;;;;;5054330;28;20184;-73
2021/11/11 01:10:35;;;;;;;0.90;0.73;;;3.90;99.90;;;;;;5054568;28;20188;-73
2021/11/11 01:13:04;;;;;;;3.45;1.98;;;3.90;99.90;;;;;;5054254;28;20177;-73
2021/11/11 01:15:34;;;;;;;1.52;1.35;;;3.90;99.90;;;;;;5070193;22;20231;-74
2021/11/11 01:18:05;;;;;;;1.30;1.02;;;3.90;99.90;;;;;;5073529;28;20550;-74
2021/11/11 01:20:33;;;;;;;1.90;1.40;;;3.80;99.90;;;;;;5073127;28;20195;-74
2021/11/11 01:23:02;;;;;;;1.75;1.30;;;3.70;99.90;;;;;;5073616;28;20187;-74
2021/11/11 01:25:34;;;;;;;0.80;0.60;;;3.80;99.90;;;;;;5073763;28;20278;-74
2021/11/11 01:28:04;;;;;;;1.98;1.55;;;3.70;99.90;;;;;;5055788;28;20188;-75
2021/11/11 01:30:36;;;;;;;1.65;1.55;;;3.70;99.90;;;;;;5055383;28;20686;-74
2021/11/11 01:33:14;;;;;;;1.60;1.50;;;3.80;99.90;;;;;;5055641;28;20199;-75
2021/11/11 01:35:43;;;;;;;2.72;2.15;;;3.80;99.90;;;;;;5073186;28;20580;-74
2021/11/11 01:38:16;;;;;;;2.78;2.65;;;3.80;99.90;;;;;;5055661;28;20603;-74
2021/11/11 01:40:46;;;;;;;2.35;2.15;;;3.70;99.90;;;;;;5055313;28;20283;-75
2021/11/11 01:43:16;;;;;;;1.00;0.70;;;3.70;99.90;;;;;;5055664;28;20199;-75
2021/11/11 01:45:45;;;;;;;1.02;0.93;;;3.80;99.90;;;;;;5055122;28;20216;-74
2021/11/11 01:48:19;;;;;;;2.38;1.60;;;3.80;99.90;;;;;;5055524;28;20216;-74
2021/11/11 01:50:48;;;;;;;2.08;1.23;;;3.80;99.90;;;;;;5054745;28;20224;-75
2021/11/11 01:53:17;;;;;;;1.48;1.38;;;3.80;99.90;;;;;;5054817;28;20210;-74
2021/11/11 01:55:49;;;;;;;0.85;0.70;;;3.80;99.90;;;;;;5054881;28;20226;-74
2021/11/11 01:58:20;;;;;;;2.28;2.08;;;3.80;99.90;;;;;;5055158;28;20342;-74
2021/11/11 02:00:52;;;;;;;1.00;0.77;;;3.80;99.90;;;;;;5055856;28;20574;-74
2021/11/11 02:03:33;;;;;;;1.67;1.35;;;3.80;99.90;;;;;;5055420;28;20218;-74
2021/11/11 02:06:08;;;;;;;6.00;1.95;;;3.80;99.90;;;;;;5055461;28;20214;-74
2021/11/11 02:08:55;;;;;;;0.80;0.60;;;3.70;99.90;;;;;;5073798;28;20199;-75
2021/11/11 02:11:33;;;;;;;1.23;1.13;;;3.80;99.90;;;;;;5055731;28;20192;-74
2021/11/11 02:14:04;;;;;;;2.35;1.02;;;3.80;99.90;;;;;;5054684;28;20191;-75
2021/11/11 02:16:35;;;;;;;0.90;0.73;;;3.90;99.90;;;;;;5054186;28;20693;-74
2021/11/11 02:19:06;;;;;;;0.95;0.68;;;4.00;99.90;;;;;;5054982;28;20253;-75
2021/11/11 02:21:39;;;;;;;8.88;1.52;;;3.90;99.90;;;;;;5055129;28;20249;-74
2021/11/11 02:24:07;;;;;;;1.33;0.82;;;3.80;99.90;;;;;;5073439;28;20192;-74
2021/11/11 02:26:44;;;;;;;0.98;0.88;;;3.80;99.90;;;;;;5054831;28;20266;-73
2021/11/11 02:29:19;;;;;;;0.95;0.85;;;3.80;99.90;;;;;;5054823;28;20211;-75
2021/11/11 02:31:48;;;;;;;1.00;0.80;;;3.80;99.90;;;;;;5054991;28;20237;-74
2021/11/11 02:34:19;;;;;;;0.80;0.50;;;3.80;99.90;;;;;;5054838;28;20227;-74
2021/11/11 02:36:59;;;;;;;1.17;1.08;;;3.70;99.90;;;;;;5055236;28;20686;-75
2021/11/11 02:39:43;;;;;;;5.40;2.15;;;3.70;99.90;;;;;;5054989;28;20195;-74
2021/11/11 02:42:11;;;;;;;3.28;1.40;;;3.60;99.90;;;;;;5055223;28;20279;-74
2021/11/11 02:44:42;;;;;;;1.90;1.17;;;3.60;99.90;;;;;;5055362;28;20571;-74
2021/11/11 02:47:15;;;;;;;1.58;1.38;;;3.50;99.90;;;;;;5055018;28;20184;-74
2021/11/11 02:49:48;;;;;;;0.80;0.50;;;3.40;99.90;;;;;;5054961;28;20231;-75
2021/11/11 02:52:18;;;;;;;1.10;0.80;;;3.50;99.90;;;;;;5072615;28;20179;-75
2021/11/11 02:54:49;;;;;;;0.80;0.60;;;3.40;99.90;;;;;;5054723;28;20244;-73
2021/11/11 02:57:22;;;;;;;0.80;0.60;;;3.40;99.90;;;;;;5054980;28;20204;-73
2021/11/11 02:59:53;;;;;;;3.78;1.92;;;3.30;99.90;;;;;;5072820;28;20631;-74
2021/11/11 03:02:24;;;;;;;1.73;1.52;;;3.30;99.90;;;;;;5054893;28;20678;-74
2021/11/11 03:04:55;;;;;;;1.38;0.93;;;3.30;99.90;;;;;;5054773;28;20223;-74
2021/11/11 03:07:27;;;;;;;1.73;1.63;;;3.20;99.90;;;;;;5054534;28;20196;-74
2021/11/11 03:09:56;;;;;;;2.17;1.05;;;3.10;99.90;;;;;;5072824;28;20192;-74
2021/11/11 03:12:24;;;;;;;2.25;1.25;;;3.20;99.90;;;;;;5054985;28;20279;-75
2021/11/11 03:14:56;;;;;;;2.38;1.92;;;3.10;99.90;;;;;;5054233;28;20306;-75
2021/11/11 03:17:25;;;;;;;2.00;0.77;;;3.20;99.90;;;;;;5054976;28;20203;-74
2021/11/11 03:19:53;;;;;;;0.90;0.80;;;3.10;99.90;;;;;;5054647;28;20192;-74
2021/11/11 03:22:22;;;;;;;1.23;0.75;;;3.00;99.90;;;;;;5054061;28;20716;-74
2021/11/11 03:24:54;;;;;;;1.98;1.15;;;3.00;99.90;;;;;;5055007;28;20208;-75
2021/11/11 03:27:31;;;;;;;4.22;1.60;;;3.00;99.90;;;;;;5056040;28;20180;-74
2021/11/11 03:30:00;;;;;;;5.32;1.58;;;3.00;99.90;;;;;;5077440;28;20183;-74
2021/11/11 03:32:30;;;;;;;5.47;1.45;;;3.00;99.90;;;;;;5058903;28;20196;-73
2021/11/11 03:35:00;;;;;;;1.15;1.05;;;2.90;99.90;;;;;;5058651;28;20212;-74
2021/11/11 03:37:29;;;;;;;4.13;0.80;;;3.00;99.90;;;;;;5058510;28;20232;-74
2021/11/11 03:39:59;;;;;;;0.80;0.50;;;2.90;99.90;;;;;;5058808;28;20294;-73
2021/11/11 03:42:28;;;;;;;3.47;1.33;;;3.00;99.90;;;;;;5059062;28;20188;-73
2021/11/11 03:44:56;;;;;;;1.30;1.20;;;2.90;99.90;;;;;;5058771;28;20219;-73
2021/11/11 03:47:27;;;;;;;1.55;1.17;;;2.90;99.90;;;;;;5057679;28;20195;-75
2021/11/11 03:49:56;;;;;;;1.05;0.70;;;2.90;99.90;;;;;;5057491;28;20561;-74
2021/11/11 03:52:24;;;;;;;2.40;1.70;;;2.90;99.90;;;;;;5057643;28;20199;-75
2021/11/11 03:54:53;;;;;;;2.08;1.60;;;2.90;99.90;;;;;;5057944;28;20212;-75
2021/11/11 03:57:24;;;;;;;1.42;1.33;;;2.90;99.90;;;;;;5057851;28;20594;-78
2021/11/11 03:59:52;;;;;;;0.85;0.65;;;2.90;99.90;;;;;;5058768;28;20413;-75
2021/11/11 04:02:23;;;;;;;1.10;1.00;;;3.00;99.90;;;;;;5057765;28;20192;-75
2021/11/11 04:04:54;;;;;;;1.30;1.05;;;3.10;99.90;;;;;;5075390;28;20211;-75
2021/11/11 04:07:23;;;;;;;1.40;1.30;;;3.10;99.90;;;;;;5057157;28;20215;-75
2021/11/11 04:09:54;;;;;;;1.77;1.67;;;3.10;99.90;;;;;;5057278;28;20266;-75
2021/11/11 04:12:24;;;;;;;0.98;0.88;;;3.10;99.90;;;;;;5056886;28;20180;-75
2021/11/11 04:14:53;;;;;;;1.65;1.55;;;3.10;99.90;;;;;;5057181;28;20247;-75
2021/11/11 04:17:21;;;;;;;0.80;0.50;;;3.00;99.90;;;;;;5056745;28;20212;-75
2021/11/11 04:19:50;;;;;;;0.80;0.60;;;2.90;99.90;;;;;;5074691;28;20221;-74
2021/11/11 04:22:19;;;;;;;1.13;1.02;;;3.00;99.90;;;;;;5057066;28;20196;-74
2021/11/11 04:24:49;;;;;;;3.63;1.23;;;3.00;99.90;;;;;;5074881;28;20249;-75
2021/11/11 04:27:21;;;;;;;1.05;0.95;;;3.00;99.90;;;;;;5074789;28;20186;-75
2021/11/11 04:30:02;;;;;;;1.17;1.02;;;3.00;99.90;;;;;;5056875;28;20270;-75
2021/11/11 04:32:30;;;;;;;2.03;1.55;;;3.00;99.90;;;;;;5056499;28;20274;-75
2021/11/11 04:35:00;;;;;;;0.80;0.65;;;2.90;99.90;;;;;;5056104;28;20212;-74
2021/11/11 04:37:32;;;;;;;1.00;0.85;;;2.90;99.90;;;;;;5056121;28;20212;-74
2021/11/11 04:45:58;;;;;;;0.80;0.50;;;2.90;99.90;;;;;;5056179;28;20251;-73
2021/11/11 04:49:05;;;;;;;1.30;0.80;;;2.90;99.90;;;;;;5074115;28;20172;-75
2021/11/11 04:51:52;;;;;;;0.80;0.50;;;3.00;99.90;;;;;;5056084;28;20658;-73
2021/11/11 05:00:20;;;;;;;1.10;0.80;;;2.70;99.90;;;;;;5056380;28;20287;-74
2021/11/11 05:05:26;;;;;;;0.80;0.52;;;2.70;99.90;;;;;;5055689;28;20623;-75
2021/11/11 05:07:55;;;;;;;1.10;0.82;;;2.60;99.90;;;;;;5056394;28;20207;-75
2021/11/11 05:10:25;;;;;;;1.70;1.02;;;2.50;99.90;;;;;;5056599;28;20204;-75
2021/11/11 05:12:54;;;;;;;1.30;1.20;;;2.60;99.90;;;;;;5056908;28;20924;-75
2021/11/11 05:15:23;;;;;;;1.10;1.00;;;2.60;99.90;;;;;;5074584;28;20219;-73
2021/11/11 05:17:53;;;;;;;1.65;0.90;;;2.40;99.90;;;;;;5074955;28;20207;-74
2021/11/11 05:20:26;;;;;;;0.80;0.60;;;2.50;99.90;;;;;;5056791;28;20192;-74
2021/11/11 05:22:54;;;;;;;2.35;2.15;;;2.50;99.90;;;;;;5074604;28;20180;-74
2021/11/11 05:25:22;;;;;;;1.23;1.13;;;2.60;99.90;;;;;;5074479;28;20208;-74
2021/11/11 05:27:54;;;;;;;0.80;0.60;;;2.60;99.90;;;;;;5056566;28;20282;-73
2021/11/11 05:30:23;;;;;;;1.30;1.20;;;2.50;99.90;;;;;;5056994;28;20208;-75
2021/11/11 05:32:54;;;;;;;1.23;1.13;;;2.50;99.90;;;;;;5057476;28;20187;-74
2021/11/11 05:35:27;;;;;;;1.08;0.98;;;2.50;99.90;;;;;;5056996;28;20235;-75
2021/11/11 05:37:56;;;;;;;2.20;2.00;;;2.60;99.90;;;;;;5057266;28;20295;-73
2021/11/11 05:40:26;;;;;;;1.23;1.13;;;2.60;99.90;;;;;;5056361;28;20539;-73
2021/11/11 05:42:54;;;;;;;1.42;1.15;;;2.50;99.90;;;;;;5073783;28;20188;-74
2021/11/11 05:45:24;;;;;;;1.15;0.85;;;2.40;99.90;;;;;;5055569;28;20223;-74
2021/11/11 05:47:58;;;;;;;1.23;1.13;;;2.40;99.90;;;;;;5055532;28;20696;-74
2021/11/11 05:50:29;;;;;;;1.00;0.82;;;2.30;99.90;;;;;;5055847;28;20262;-75
2021/11/11 05:52:58;;;;;;;2.30;1.50;;;2.30;99.90;;;;;;5055090;28;20271;-75
2021/11/11 05:55:26;;;;;;;1.48;1.20;;;2.30;99.90;;;;;;5073297;28;20232;-74
2021/11/11 05:57:54;;;;;;;1.25;1.15;;;2.30;99.90;;;;;;5073211;28;20200;-76
2021/11/11 06:00:22;;;;;;;1.40;1.10;;;2.40;99.90;;;;;;5055375;28;20231;-74
2021/11/11 06:03:04;;;;;;;1.15;0.70;;;2.50;99.90;;;;;;5055813;28;20196;-74
2021/11/11 06:05:33;;;;;;;1.70;1.08;;;2.40;99.90;;;;;;5073165;28;20249;-74
2021/11/11 06:08:03;;;;;;;0.80;0.60;;;2.40;99.90;;;;;;5055989;28;20176;-74
2021/11/11 06:10:31;;;;;;;1.45;1.13;;;2.40;99.90;;;;;;5072997;28;20180;-73
2021/11/11 06:12:59;;;;;;;0.90;0.80;;;2.40;99.90;;;;;;5055393;28;20553;-74
2021/11/11 06:15:28;;;;;;;6.72;1.90;;;2.40;99.90;;;;;;5073147;28;20732;-73
2021/11/11 06:17:58;;;;;;;1.90;1.63;;;2.50;99.90;;;;;;5073601;28;20216;-75
2021/11/11 06:20:31;;;;;;;1.35;1.25;;;2.60;99.90;;;;;;5073133;28;20176;-73
2021/11/11 06:23:03;;;;;;;1.50;1.40;;;2.50;99.90;;;;;;5055306;28;20219;-75
2021/11/11 06:25:31;;;;;;;3.25;2.00;;;2.50;99.90;;;;;;5055474;28;20216;-75
2021/11/11 06:28:03;;;;;;;0.90;0.75;;;2.60;99.90;;;;;;5054916;28;20184;-75
2021/11/11 06:30:32;;;;;;;2.47;1.25;;;2.60;99.90;;;;;;5055460;28;20195;-73
2021/11/11 06:33:01;;;;;;;2.00;1.90;;;2.60;99.90;;;;;;5055129;28;20184;-75
2021/11/11 06:35:33;;;;;;;0.80;0.50;;;2.70;99.90;;;;;;5055803;28;20215;-74
2021/11/11 06:38:08;;;;;;;1.52;1.42;;;2.90;99.90;;;;;;5072973;28;20219;-75
2021/11/11 06:40:37;;;;;;;3.10;1.92;;;2.90;99.90;;;;;;5055603;28;20180;-74
2021/11/11 06:43:05;;;;;;;1.00;0.85;;;3.00;99.90;;;;;;5073661;28;20191;-76
2021/11/11 06:45:39;;;;;;;0.95;0.85;;;3.00;99.90;;;;;;5055222;28;20234;-77
2021/11/11 06:48:07;;;;;;;4.90;2.55;;;3.00;99.90;;;;;;5073423;28;20753;-73
2021/11/11 06:50:37;;;;;;;1.77;1.30;;;3.10;99.90;;;;;;5072762;28;20241;-75
2021/11/11 06:53:11;;;;;;;1.25;1.15;;;3.10;99.90;;;;;;5073091;28;20179;-74
2021/11/11 06:55:42;;;;;;;2.05;1.95;;;3.10;99.90;;;;;;5073073;28;20247;-75
2021/11/11 06:58:11;;;;;;;1.42;1.33;;;3.20;99.90;;;;;;5072661;28;20666;-74
2021/11/11 07:00:41;;;;;;;1.10;1.00;;;3.20;99.90;;;;;;5055093;28;20187;-74
2021/11/11 07:03:12;;;;;;;0.82;0.60;;;3.30;99.90;;;;;;5066434;28;20188;-73
2021/11/11 07:05:48;;;;;;;0.80;0.60;;;3.30;99.90;;;;;;5079123;28;20222;-73
2021/11/11 07:08:16;;;;;;;2.15;2.00;;;3.40;99.90;;;;;;5096647;28;20180;-74
2021/11/11 07:10:46;;;;;;;1.27;0.93;;;3.40;99.90;;;;;;5095962;28;20176;-72
2021/11/11 07:13:15;;;;;;;1.83;0.90;;;3.40;99.90;;;;;;5093770;28;20188;-74
2021/11/11 07:15:45;;;;;;;1.50;1.40;;;3.50;99.90;;;;;;5061624;28;20252;-74
2021/11/11 07:18:13;;;;;;;0.80;0.57;;;3.60;99.90;;;;;;5059952;28;20344;-73
2021/11/11 07:20:44;;;;;;;1.25;1.13;;;3.60;99.90;;;;;;5077539;28;20191;-73
2021/11/11 07:23:15;;;;;;;2.10;1.40;;;3.60;99.90;;;;;;5077886;28;20182;-74
2021/11/11 07:25:44;;;;;;;1.25;1.15;;;3.70;99.90;;;;;;5059153;28;20576;-73
2021/11/11 07:28:14;;;;;;;0.90;0.70;;;3.70;99.90;;;;;;5076565;28;20226;-74
2021/11/11 07:30:43;;;;;;;1.25;1.15;;;3.80;99.90;;;;;;5076966;28;20259;-75
2021/11/11 07:33:12;;;;;;;1.65;1.55;;;3.80;99.90;;;;;;5058621;28;20180;-75
2021/11/11 07:35:41;;;;;;;1.33;1.23;;;3.90;99.90;;;;;;5076122;28;20216;-74
2021/11/11 07:38:09;;;;;;;1.35;1.25;;;4.00;99.90;;;;;;5075881;28;20619;-74
2021/11/11 07:40:39;;;;;;;1.60;1.13;;;4.00;99.90;;;;;;5075791;28;20220;-74
2021/11/11 07:43:08;;;;;;;1.50;1.40;;;4.10;99.90;;;;;;5075368;28;20188;-74
2021/11/11 07:45:42;;;;;;;1.95;1.15;;;4.10;99.90;;;;;;5046411;28;21807;-74
2021/11/11 07:48:10;;;;;;;0.80;0.50;;;4.20;99.90;;;;;;5015963;28;20182;-73
2021/11/11 07:50:42;;;;;;;1.48;1.38;;;4.20;99.90;;;;;;4998651;28;20285;-74
2021/11/11 07:53:11;;;;;;;1.90;0.80;;;4.40;99.90;;;;;;5017950;28;20208;-73
2021/11/11 07:55:43;;;;;;;4.63;2.03;;;4.50;99.90;;;;;;4997858;28;20623;-73
2021/11/11 07:58:11;;;;;;;2.40;1.65;;;4.60;99.90;;;;;;5015528;28;20200;-75
2021/11/11 08:00:41;;;;;;;1.10;0.98;;;4.60;99.90;;;;;;5015550;28;20237;-74
2021/11/11 08:03:10;;;;;;;1.55;1.40;;;4.70;99.90;;;;;;5016237;28;20653;-74
2021/11/11 08:05:40;;;;;;;0.80;0.60;;;4.70;99.90;;;;;;5015857;28;20216;-74
2021/11/11 08:08:09;;;;;;;4.20;1.33;;;4.70;99.90;;;;;;5015389;28;20189;-74
2021/11/11 08:10:37;;;;;;;1.10;0.85;;;4.80;99.90;;;;;;5015994;28;20224;-75
2021/11/11 08:13:07;;;;;;;2.95;1.50;;;4.80;99.90;;;;;;5015955;28;20201;-74
2021/11/11 08:15:35;;;;;;;0.80;0.60;;;4.90;99.90;;;;;;5014269;28;20751;-76
2021/11/11 08:18:04;;;;;;;1.42;1.33;;;5.00;99.90;;;;;;5015545;28;20194;-75
2021/11/11 08:20:32;;;;;;;0.90;0.70;;;5.10;99.90;;;;;;5015292;28;20198;-75
2021/11/11 08:23:00;;;;;;;1.80;1.60;;;5.20;99.90;;;;;;5015392;28;20194;-74
2021/11/11 08:25:29;;;;;;;1.52;0.93;;;5.40;99.90;;;;;;5014504;28;20213;-73
2021/11/11 08:27:57;;;;;;;2.20;1.00;;;5.40;99.90;;;;;;5014504;28;20186;-72
2021/11/11 08:30:27;;;;;;;2.00;0.90;;;5.50;99.90;;;;;;5014585;28;20406;-73
2021/11/11 08:32:55;;;;;;;1.48;1.33;;;5.60;99.90;;;;;;5015036;28;20174;-75
2021/11/11 08:35:25;;;;;;;2.78;0.80;;;5.70;99.90;;;;;;4996930;28;20209;-73
2021/11/11 08:37:54;;;;;;;1.70;1.05;;;5.80;99.90;;;;;;5015453;28;20194;-74
2021/11/11 08:40:23;;;;;;;1.58;1.38;;;5.80;99.90;;;;;;5014477;28;20619;-75
2021/11/11 08:42:53;;;;;;;1.00;0.90;;;5.80;99.90;;;;;;5015061;28;20609;-74
2021/11/11 08:45:23;;;;;;;2.00;1.45;;;5.80;99.90;;;;;;4996921;28;20218;-74
2021/11/11 08:47:53;;;;;;;1.85;1.60;;;5.80;99.90;;;;;;4997029;28;20614;-74
2021/11/11 08:50:21;;;;;;;4.80;3.75;;;5.80;99.90;;;;;;5014107;28;20178;-72
2021/11/11 08:52:54;;;;;;;1.27;0.93;;;5.90;99.90;;;;;;5014946;28;20170;-75
2021/11/11 08:55:24;;;;;;;1.75;1.25;;;6.10;99.90;;;;;;5030537;28;20224;-74
2021/11/11 08:57:54;;;;;;;0.80;0.50;;;6.10;99.90;;;;;;5014202;28;20182;-72
2021/11/11 09:00:24;;;;;;;1.55;1.15;;;6.20;99.90;;;;;;5014175;28;20212;-74
2021/11/11 09:02:56;;;;;;;3.50;1.17;;;6.10;99.90;;;;;;5014195;28;20194;-74
2021/11/11 09:05:26;;;;;;;8.43;1.85;;;6.20;99.90;;;;;;5014122;28;20210;-74
2021/11/11 09:07:54;;;;;;;2.97;1.95;;;6.20;99.90;;;;;;5014282;28;20196;-74
2021/11/11 09:10:23;;;;;;;1.25;1.15;;;6.30;99.90;;;;;;5014284;28;20241;-72
2021/11/11 09:12:53;;;;;;;1.40;1.30;;;6.50;99.90;;;;;;5013702;28;20560;-73
2021/11/11 09:15:25;;;;;;;1.95;1.02;;;6.50;99.90;;;;;;5013718;28;20225;-72
2021/11/11 09:17:54;;;;;;;1.40;1.27;;;6.50;99.90;;;;;;5013722;28;20182;-72
2021/11/11 09:20:24;;;;;;;1.13;1.02;;;6.70;99.90;;;;;;5013688;28;20248;-72
2021/11/11 09:22:54;;;;;;;0.90;0.77;;;6.90;99.90;;;;;;5013849;28;20183;-71
2021/11/11 09:25:23;;;;;;;1.60;1.27;;;7.10;99.90;;;;;;5013077;28;20217;-71
2021/11/11 09:27:52;;;;;;;1.10;1.00;;;7.20;99.90;;;;;;5013452;28;20181;-71
2021/11/11 09:30:22;;;;;;;2.78;1.20;;;7.20;99.90;;;;;;5013449;28;20240;-71
2021/11/11 09:32:51;;;;;;;1.70;1.60;;;7.40;99.90;;;;;;5013227;28;20182;-72
2021/11/11 09:35:21;;;;;;;3.47;2.17;;;7.50;99.90;;;;;;5013144;28;20241;-72
2021/11/11 09:37:50;;;;;;;1.33;1.00;;;7.60;99.90;;;;;;5013197;28;20182;-72
2021/11/11 09:40:21;;;;;;;1.83;1.05;;;7.70;99.90;;;;;;5045318;28;20214;-71
2021/11/11 09:42:49;;;;;;;0.90;0.60;;;7.50;99.90;;;;;;5013399;28;20205;-71
2021/11/11 09:45:23;;;;;;;1.40;1.02;;;7.50;99.90;;;;;;5013536;28;20241;-73
2021/11/11 09:47:52;;;;;;;4.95;1.60;;;7.40;99.90;;;;;;5013191;28;20597;-71
2021/11/11 09:50:25;;;;;;;1.60;1.02;;;7.40;99.90;;;;;;5013020;28;20193;-72
2021/11/11 09:52:53;;;;;;;1.25;0.93;;;7.70;99.90;;;;;;5013153;28;20175;-72
2021/11/11 10:00:59;;;;;;;2.88;1.70;;;8.30;99.90;;;;;;5013677;28;20300;-71
2021/11/11 10:03:28;;;;;;;1.00;0.75;;;8.10;99.90;;;;;;5013121;28;20198;-71
2021/11/11 10:05:58;;;;;;;2.15;1.23;;;8.00;99.90;;;;;;5012973;28;20237;-71
2021/11/11 10:08:35;;;;;;;1.00;0.60;;;7.90;99.90;;;;;;5014213;28;20236;-72
2021/11/11 10:11:08;;;;;;;0.80;0.60;;;7.80;99.90;;;;;;5013027;28;20580;-71
2021/11/11 10:13:36;;;;;;;1.13;0.82;;;7.70;99.90;;;;;;5044644;28;20197;-72
2021/11/11 10:16:14;;;;;;;1.10;0.88;;;7.60;99.90;;;;;;5013094;28;20265;-72
2021/11/11 10:18:51;;;;;;;0.80;0.50;;;7.60;99.90;;;;;;5012718;28;20574;-72
2021/11/11 10:21:29;;;;;;;2.85;1.05;;;7.60;99.90;;;;;;5012500;28;20174;-70
2021/11/11 10:24:11;;;;;;;1.20;0.95;;;7.70;99.90;;;;;;5013066;28;20391;-76
2021/11/11 10:26:41;;;;;;;2.50;0.68;;;7.80;99.90;;;;;;5044747;28;20186;-76
2021/11/11 10:29:31;;;;;;;1.33;0.85;;;8.00;99.90;;;;;;5012825;28;20178;-76
2021/11/11 10:32:08;;;;;;;1.85;0.80;;;8.20;99.90;;;;;;5012607;28;20197;-75
2021/11/11 10:34:44;;;;;;;1.85;1.35;;;8.30;99.90;;;;;;5012215;28;20214;-75
2021/11/11 10:37:14;;;;;;;2.08;1.35;;;8.30;99.90;;;;;;5012632;28;20637;-76
2021/11/11 10:39:51;;;;;;;2.90;2.30;;;8.40;99.90;;;;;;5014750;28;20260;-77
2021/11/11 10:42:22;;;;;;;3.38;1.13;;;8.60;99.90;;;;;;5016205;28;20197;-75
2021/11/11 10:44:53;;;;;;;2.28;1.63;;;9.10;99.90;;;;;;5016651;28;20209;-76
2021/11/11 10:47:24;;;;;;;3.22;1.60;;;9.40;99.90;;;;;;5016362;28;20248;-75
2021/11/11 10:49:53;;;;;;;0.85;0.55;;;9.60;99.90;;;;;;5016575;28;20537;-76
2021/11/11 10:52:36;;;;;;;1.92;1.83;;;9.30;99.90;;;;;;5016623;28;20190;-75
2021/11/11 10:55:15;;;;;;;4.28;1.65;;;9.50;99.90;;;;;;5016218;28;20217;-76
2021/11/11 10:57:51;;;;;;;1.30;0.97;;;9.90;99.90;;;;;;5016188;28;20201;-75
2021/11/11 11:00:25;;;;;;;2.20;2.00;;;10.10;99.90;;;;;;5017817;28;20507;-75
2021/11/11 11:02:57;;;;;;;3.57;2.70;;;10.30;99.90;;;;;;5017119;28;20428;-76
2021/11/11 11:05:28;;;;;;;3.23;1.50;;;10.40;99.90;;;;;;5016116;28;20739;-75
2021/11/11 11:08:04;;;;;;;1.47;1.37;;;10.50;99.90;;;;;;5015903;28;20457;-75
2021/11/11 11:10:34;;;;;;;2.23;1.57;;;10.50;99.90;;;;;;5047947;28;20424;-75
2021/11/11 11:13:11;;;;;;;3.93;1.67;;;10.60;99.90;;;;;;5016197;28;20896;-76
2021/11/11 11:15:44;;;;;;;1.30;0.90;;;10.70;99.90;;;;;;5047499;28;20449;-76
2021/11/11 11:18:13;;;;;;;2.10;1.93;;;10.50;99.90;;;;;;5047817;28;20494;-76
2021/11/11 11:20:41;;;;;;;6.00;1.87;;;10.40;99.90;;;;;;5016072;28;20471;-75
2021/11/11 11:23:23;;;;;;;2.50;2.20;;;10.30;99.90;;;;;;5017547;28;20424;-77
2021/11/11 11:25:55;;;;;;;4.10;2.77;;;10.30;99.90;;;;;;5016847;28;20475;-75
2021/11/11 11:28:29;;;;;;;6.13;4.10;;;10.30;99.90;;;;;;5016068;28;20413;-75
2021/11/11 11:31:02;;;;;;;1.27;1.17;;;10.20;99.90;;;;;;5048122;28;20424;-76
2021/11/11 11:33:41;;;;;;;8.13;2.03;;;10.10;99.90;;;;;;5015685;28;20401;-75
2021/11/11 11:36:29;;;;;;;4.23;1.67;;;9.90;99.90;;;;;;5015498;28;20854;-76
2021/11/11 11:39:14;;;;;;;1.52;1.40;;;9.50;99.90;;;;;;5015625;28;20402;-76
2021/11/11 11:41:45;;;;;;;3.30;1.48;;;9.20;99.90;;;;;;5015416;28;20198;-75
2021/11/11 11:44:31;;;;;;;1.45;0.88;;;8.90;99.90;;;;;;5015350;28;20253;-75
2021/11/11 11:47:15;;;;;;;1.00;0.90;;;8.80;99.90;;;;;;5031284;28;20622;-74
2021/11/11 11:49:46;;;;;;;5.15;1.63;;;8.90;1.00;;;;;;5018990;28;20185;-73
2021/11/11 11:52:15;;;;;;;9.13;1.25;;;9.20;99.90;;;;;;5018738;28;20178;-73
2021/11/11 11:54:58;;;;;;;1.13;0.82;;;9.40;99.90;;;;;;5017766;28;20611;-73
2021/11/11 11:57:35;;;;;;;1.48;1.38;;;9.50;99.90;;;;;;5018619;28;20639;-73
2021/11/11 12:00:09;;;;;;;4.90;1.23;;;9.60;99.90;;;;;;5017666;28;20564;-74
2021/11/11 12:06:03;;;;;;;2.50;1.85;;;9.80;99.90;;;;;;4977563;28;20226;-74
2021/11/11 12:14:26;;;;;;;1.07;0.90;;;9.80;99.90;;;;;;4999584;28;20983;-72
2021/11/11 12:40:27;;;;;;;4.30;1.38;;;9.90;99.90;;;;;;5017088;28;20221;-73
2021/11/11 12:43:00;;;;;;;2.70;1.67;;;9.80;99.90;;;;;;5047934;28;20240;-74
2021/11/11 12:45:37;;;;;;;4.20;1.23;;;9.60;99.90;;;;;;5015708;28;20502;-75
2021/11/11 12:48:21;;;;;;;3.05;1.65;;;9.50;99.90;;;;;;5016246;28;20525;-73
2021/11/11 12:50:50;;;;;;;2.70;1.63;;;9.40;99.90;;;;;;5015624;28;20171;-74
2021/11/11 12:53:23;;;;;;;1.50;0.85;;;9.10;99.90;;;;;;5015844;28;20436;-73
2021/11/11 12:56:11;;;;;;;3.17;1.40;;;8.90;99.90;;;;;;5014854;28;20213;-73
2021/11/11 12:58:42;;;;;;;2.55;1.45;;;8.80;99.90;;;;;;5009491;28;20336;-74
2021/11/11 13:01:16;;;;;;;1.67;1.58;;;8.80;99.90;;;;;;5015484;28;20201;-75
2021/11/11 13:03:48;;;;;;;0.80;0.50;;;8.90;99.90;;;;;;5015527;28;20245;-74
2021/11/11 13:06:38;;;;;;;1.85;1.17;;;8.90;99.90;;;;;;5016563;28;20217;-73
2021/11/11 13:09:11;;;;;;;0.95;0.50;;;8.80;99.90;;;;;;5016656;28;20228;-74
2021/11/11 13:11:42;;;;;;;2.08;0.90;;;8.90;99.90;;;;;;5016619;28;20179;-73
2021/11/11 13:14:16;;;;;;;1.25;0.93;;;8.90;99.90;;;;;;5015915;28;20188;-73
2021/11/11 13:17:10;;;;;;;0.90;0.60;;;8.90;99.90;;;;;;5014740;28;20182;-74
2021/11/11 13:19:42;;;;;;;3.13;2.20;;;9.10;99.90;;;;;;5013219;28;20190;-74
2021/11/11 13:22:18;;;;;;;2.20;1.35;;;9.20;99.90;;;;;;5013120;28;20273;-73
2021/11/11 13:24:59;;;;;;;3.05;1.65;;;9.30;99.90;;;;;;5013463;28;20210;-73
2021/11/11 17:08:09;;;;;;;8.97;5.50;;;16.10;99.90;;;20.57;60.50;101776.56;4945685;28;20976;-73
2021/11/11 17:10:38;;;;;;;6.00;5.23;;;19.60;99.90;;;21.12;58.98;101780.09;4886023;28;20474;-74
2021/11/11 17:13:50;;;;;;;6.57;4.80;;;20.80;99.90;;;22.28;54.96;101779.47;4883275;27;20926;-74
2021/11/11 17:32:07;;;;;;;20.50;18.30;;;17.90;99.90;;;12.54;61.38;101809.84;5004960;28;20693;-74
2021/11/11 17:34:36;;;;;;;21.73;19.43;;;15.10;99.90;;;11.33;65.88;101809.47;4949588;28;20456;-74
2021/11/11 17:37:06;;;;;;;22.70;19.60;;;13.00;99.90;;;10.66;68.43;101810.41;4925662;28;536990;-74
2021/11/11 17:39:35;;;;;;;21.60;19.03;;;11.80;99.90;;;10.10;70.90;101809.72;5030626;28;20635;-74
2021/11/11 17:42:06;;;;;;;23.47;20.17;;;10.70;99.90;;;9.74;72.31;101809.38;5030607;28;20429;-73
2021/11/11 17:44:37;;;;;;;23.63;17.20;;;10.10;99.90;;;9.62;73.05;101809.94;5033292;28;20746;-74
2021/11/11 17:47:11;;;;;;;27.23;19.50;;;9.90;99.90;;;9.47;73.94;101812.50;5030734;28;20519;-73
2021/11/11 17:49:43;;;;;;;23.70;18.38;;;9.60;99.90;;;9.34;74.45;101814.91;5030058;28;20416;-74
2021/11/11 17:52:22;;;;;;;22.60;19.20;;;9.50;99.90;;;9.22;75.16;101819.81;5029905;28;20201;-73
2021/11/11 17:54:55;;;;;;;29.57;21.33;;;9.30;99.90;;;9.04;75.63;101825.41;5045239;28;20942;-75
2021/11/11 17:57:28;;;;;;;27.55;21.15;;;9.10;99.90;;;8.99;76.11;101830.47;5029653;28;20422;-73